sensor_id;sensor_type;location;lat;lon;timestamp;P1;durP1;ratioP1;P2;durP2;ratioP2
22863;SDS011;11599;49.882;8.680;2022-10-13T00:10:17;11.80;;;5.83;;
22863;SDS011;11599;49.882;8.680;2022-10-13T00:20:40;10.23;;;5.20;;
22863;SDS011;11599;49.882;8.680;2022-10-13T00:31:03;12.97;;;5.23;;
22863;SDS011;11599;49.882;8.680;2022-10-13T00:41:24;12.53;;;5.23;;
22863;SDS011;11599;49.882;8.680;2022-10-13T00:51:47;11.73;;;4.90;;
22863;SDS011;11599;49.882;8.680;2022-10-13T01:02:09;9.33;;;4.97;;
22863;SDS011;11599;49.882;8.680;2022-10-13T01:12:37;11.67;;;5.53;;
22863;SDS011;11599;49.882;8.680;2022-10-13T01:23:12;14.83;;;6.93;;
22863;SDS011;11599;49.882;8.680;2022-10-13T01:33:39;12.27;;;6.53;;
22863;SDS011;11599;49.882;8.680;2022-10-13T01:44:07;17.53;;;7.00;;
22863;SDS011;11599;49.882;8.680;2022-10-13T01:54:36;19.73;;;8.33;;
22863;SDS011;11599;49.882;8.680;2022-10-13T02:04:59;18.43;;;7.77;;
22863;SDS011;11599;49.882;8.680;2022-10-13T02:15:26;17.47;;;7.60;;
22863;SDS011;11599;49.882;8.680;2022-10-13T02:25:48;14.60;;;6.97;;
22863;SDS011;11599;49.882;8.680;2022-10-13T02:36:12;12.30;;;6.03;;
22863;SDS011;11599;49.882;8.680;2022-10-13T02:46:33;13.17;;;5.70;;
22863;SDS011;11599;49.882;8.680;2022-10-13T02:56:56;18.20;;;6.67;;
22863;SDS011;11599;49.882;8.680;2022-10-13T03:07:17;18.33;;;6.13;;
22863;SDS011;11599;49.882;8.680;2022-10-13T03:17:40;14.37;;;5.57;;
22863;SDS011;11599;49.882;8.680;2022-10-13T03:28:02;13.70;;;6.70;;
22863;SDS011;11599;49.882;8.680;2022-10-13T03:38:24;20.57;;;9.37;;
22863;SDS011;11599;49.882;8.680;2022-10-13T03:48:46;27.13;;;11.87;;
22863;SDS011;11599;49.882;8.680;2022-10-13T03:59:10;31.33;;;12.90;;
22863;SDS011;11599;49.882;8.680;2022-10-13T04:09:32;29.43;;;13.23;;
22863;SDS011;11599;49.882;8.680;2022-10-13T04:19:55;34.03;;;13.90;;
22863;SDS011;11599;49.882;8.680;2022-10-13T04:30:16;28.13;;;12.60;;
22863;SDS011;11599;49.882;8.680;2022-10-13T04:40:39;27.87;;;12.70;;
22863;SDS011;11599;49.882;8.680;2022-10-13T04:51:01;33.20;;;14.40;;
22863;SDS011;11599;49.882;8.680;2022-10-13T05:01:24;30.53;;;13.37;;
22863;SDS011;11599;49.882;8.680;2022-10-13T05:11:46;29.37;;;12.77;;
22863;SDS011;11599;49.882;8.680;2022-10-13T05:22:08;32.97;;;14.13;;
22863;SDS011;11599;49.882;8.680;2022-10-13T05:32:33;29.67;;;12.77;;
22863;SDS011;11599;49.882;8.680;2022-10-13T05:42:56;25.93;;;10.60;;
22863;SDS011;11599;49.882;8.680;2022-10-13T05:53:17;23.37;;;9.17;;
22863;SDS011;11599;49.882;8.680;2022-10-13T06:03:40;17.83;;;8.70;;
22863;SDS011;11599;49.882;8.680;2022-10-13T06:14:02;26.03;;;10.70;;
22863;SDS011;11599;49.882;8.680;2022-10-13T06:24:25;25.53;;;11.20;;
22863;SDS011;11599;49.882;8.680;2022-10-13T06:34:47;26.00;;;11.40;;
22863;SDS011;11599;49.882;8.680;2022-10-13T06:45:10;23.17;;;10.63;;
22863;SDS011;11599;49.882;8.680;2022-10-13T06:55:33;27.37;;;11.23;;
22863;SDS011;11599;49.882;8.680;2022-10-13T07:05:59;22.47;;;10.83;;
22863;SDS011;11599;49.882;8.680;2022-10-13T07:16:21;26.80;;;10.90;;
22863;SDS011;11599;49.882;8.680;2022-10-13T07:26:44;33.50;;;13.17;;
22863;SDS011;11599;49.882;8.680;2022-10-13T07:37:05;31.43;;;13.63;;
22863;SDS011;11599;49.882;8.680;2022-10-13T07:47:28;29.70;;;13.40;;
22863;SDS011;11599;49.882;8.680;2022-10-13T07:57:50;25.73;;;12.30;;
22863;SDS011;11599;49.882;8.680;2022-10-13T08:08:13;27.67;;;13.00;;
22863;SDS011;11599;49.882;8.680;2022-10-13T08:18:34;25.00;;;11.57;;
22863;SDS011;11599;49.882;8.680;2022-10-13T08:28:58;27.20;;;11.50;;
22863;SDS011;11599;49.882;8.680;2022-10-13T08:39:20;22.73;;;11.00;;
22863;SDS011;11599;49.882;8.680;2022-10-13T08:49:43;22.10;;;11.20;;
22863;SDS011;11599;49.882;8.680;2022-10-13T09:00:08;26.27;;;11.83;;
22863;SDS011;11599;49.882;8.680;2022-10-13T09:10:33;27.13;;;12.40;;
22863;SDS011;11599;49.882;8.680;2022-10-13T09:21:13;25.73;;;13.47;;
22863;SDS011;11599;49.882;8.680;2022-10-13T09:31:38;24.50;;;11.83;;
22863;SDS011;11599;49.882;8.680;2022-10-13T09:42:16;30.70;;;13.40;;
22863;SDS011;11599;49.882;8.680;2022-10-13T09:52:40;26.63;;;13.33;;
22863;SDS011;11599;49.882;8.680;2022-10-13T10:03:04;26.63;;;14.03;;
22863;SDS011;11599;49.882;8.680;2022-10-13T10:13:27;28.40;;;13.10;;
22863;SDS011;11599;49.882;8.680;2022-10-13T10:23:50;34.73;;;15.47;;
22863;SDS011;11599;49.882;8.680;2022-10-13T10:34:22;33.07;;;15.23;;
22863;SDS011;11599;49.882;8.680;2022-10-13T10:44:46;28.37;;;14.23;;
22863;SDS011;11599;49.882;8.680;2022-10-13T10:55:16;30.57;;;14.23;;
22863;SDS011;11599;49.882;8.680;2022-10-13T11:05:59;30.57;;;13.43;;
22863;SDS011;11599;49.882;8.680;2022-10-13T11:16:26;26.97;;;13.37;;
22863;SDS011;11599;49.882;8.680;2022-10-13T11:26:47;25.83;;;12.60;;
22863;SDS011;11599;49.882;8.680;2022-10-13T11:37:12;30.20;;;12.43;;
22863;SDS011;11599;49.882;8.680;2022-10-13T11:47:47;22.77;;;11.57;;
22863;SDS011;11599;49.882;8.680;2022-10-13T11:58:15;21.43;;;9.90;;
22863;SDS011;11599;49.882;8.680;2022-10-13T12:08:37;24.43;;;11.37;;
22863;SDS011;11599;49.882;8.680;2022-10-13T12:19:07;19.63;;;10.00;;
22863;SDS011;11599;49.882;8.680;2022-10-13T12:29:29;19.33;;;9.57;;
22863;SDS011;11599;49.882;8.680;2022-10-13T12:39:52;22.57;;;10.40;;
22863;SDS011;11599;49.882;8.680;2022-10-13T13:01:02;20.77;;;9.93;;
22863;SDS011;11599;49.882;8.680;2022-10-13T13:11:32;21.47;;;10.43;;
22863;SDS011;11599;49.882;8.680;2022-10-13T13:21:59;21.70;;;10.53;;
22863;SDS011;11599;49.882;8.680;2022-10-13T13:32:21;18.67;;;9.93;;
22863;SDS011;11599;49.882;8.680;2022-10-13T13:42:44;19.70;;;10.83;;
22863;SDS011;11599;49.882;8.680;2022-10-13T13:53:05;20.17;;;10.90;;
22863;SDS011;11599;49.882;8.680;2022-10-13T14:03:28;23.37;;;10.97;;
22863;SDS011;11599;49.882;8.680;2022-10-13T14:13:49;21.47;;;10.80;;
22863;SDS011;11599;49.882;8.680;2022-10-13T14:24:22;21.37;;;10.77;;
22863;SDS011;11599;49.882;8.680;2022-10-13T14:34:43;23.87;;;10.53;;
22863;SDS011;11599;49.882;8.680;2022-10-13T14:45:06;19.23;;;10.80;;
22863;SDS011;11599;49.882;8.680;2022-10-13T14:55:29;17.93;;;10.47;;
22863;SDS011;11599;49.882;8.680;2022-10-13T15:05:54;20.73;;;10.83;;
22863;SDS011;11599;49.882;8.680;2022-10-13T15:16:17;20.73;;;11.33;;
22863;SDS011;11599;49.882;8.680;2022-10-13T15:26:41;25.73;;;12.03;;
22863;SDS011;11599;49.882;8.680;2022-10-13T15:37:02;23.83;;;12.33;;
22863;SDS011;11599;49.882;8.680;2022-10-13T15:47:27;23.77;;;12.47;;
22863;SDS011;11599;49.882;8.680;2022-10-13T15:57:50;23.40;;;13.20;;
22863;SDS011;11599;49.882;8.680;2022-10-13T16:08:16;29.53;;;14.20;;
22863;SDS011;11599;49.882;8.680;2022-10-13T16:18:38;22.73;;;13.67;;
22863;SDS011;11599;49.882;8.680;2022-10-13T16:29:04;27.30;;;13.63;;
22863;SDS011;11599;49.882;8.680;2022-10-13T16:39:25;26.27;;;13.90;;
22863;SDS011;11599;49.882;8.680;2022-10-13T17:41:21;29.63;;;15.03;;
22863;SDS011;11599;49.882;8.680;2022-10-13T17:51:43;25.40;;;13.60;;
22863;SDS011;11599;49.882;8.680;2022-10-13T18:02:06;25.93;;;13.57;;
22863;SDS011;11599;49.882;8.680;2022-10-13T18:12:27;28.17;;;13.60;;
22863;SDS011;11599;49.882;8.680;2022-10-13T18:22:50;24.70;;;13.83;;
22863;SDS011;11599;49.882;8.680;2022-10-13T18:33:12;29.27;;;14.70;;
22863;SDS011;11599;49.882;8.680;2022-10-13T18:43:35;25.07;;;13.07;;
22863;SDS011;11599;49.882;8.680;2022-10-13T18:53:56;24.67;;;13.07;;
22863;SDS011;11599;49.882;8.680;2022-10-13T19:04:20;22.57;;;12.57;;
22863;SDS011;11599;49.882;8.680;2022-10-13T19:14:42;29.30;;;13.93;;
22863;SDS011;11599;49.882;8.680;2022-10-13T19:25:06;27.37;;;13.23;;
22863;SDS011;11599;49.882;8.680;2022-10-13T19:35:28;15.93;;;7.37;;
22863;SDS011;11599;49.882;8.680;2022-10-13T19:45:51;10.00;;;5.47;;
22863;SDS011;11599;49.882;8.680;2022-10-13T19:56:20;11.63;;;6.27;;
22863;SDS011;11599;49.882;8.680;2022-10-13T20:06:43;11.93;;;6.97;;
22863;SDS011;11599;49.882;8.680;2022-10-13T20:17:05;17.77;;;7.63;;
22863;SDS011;11599;49.882;8.680;2022-10-13T20:27:28;13.00;;;7.03;;
22863;SDS011;11599;49.882;8.680;2022-10-13T21:19:19;13.53;;;7.10;;
22863;SDS011;11599;49.882;8.680;2022-10-13T21:29:40;9.27;;;5.13;;
22863;SDS011;11599;49.882;8.680;2022-10-13T21:40:04;12.63;;;6.00;;
22863;SDS011;11599;49.882;8.680;2022-10-13T21:50:26;10.97;;;6.40;;
22863;SDS011;11599;49.882;8.680;2022-10-13T22:00:49;14.27;;;6.70;;
22863;SDS011;11599;49.882;8.680;2022-10-13T22:11:11;15.47;;;7.80;;
22863;SDS011;11599;49.882;8.680;2022-10-13T22:21:34;16.43;;;7.97;;
22863;SDS011;11599;49.882;8.680;2022-10-13T22:52:45;15.77;;;8.63;;
22863;SDS011;11599;49.882;8.680;2022-10-13T23:03:06;16.43;;;8.67;;
22863;SDS011;11599;49.882;8.680;2022-10-13T23:13:29;18.60;;;8.83;;
22863;SDS011;11599;49.882;8.680;2022-10-13T23:23:54;17.17;;;8.93;;
